createdAt,value
2023-04-10T00:01:56.155Z,101102.31
2023-04-10T00:05:00.770Z,101073.94
2023-04-10T00:08:03.454Z,101099.53
2023-04-10T00:11:06.264Z,101073.94
2023-04-10T00:14:09.436Z,101090.22
2023-04-10T00:17:12.223Z,101045.66
2023-04-10T00:20:14.655Z,101054.84
2023-04-10T00:23:17.479Z,101058.91
2023-04-10T00:26:21.169Z,101052.19
2023-04-10T00:29:24.185Z,101055.72
2023-04-10T00:32:26.487Z,101072.03
2023-04-10T00:35:29.169Z,101078.84
2023-04-10T00:38:31.652Z,101076.41
2023-04-10T00:41:34.884Z,101050.53
2023-04-10T00:44:38.115Z,101072.59
2023-04-10T00:47:41.093Z,101068.53
2023-04-10T00:50:43.841Z,101062.53
2023-04-10T00:53:48.368Z,101035.06
2023-04-10T00:56:51.137Z,101064.19
2023-04-10T00:59:54.030Z,101041.91
2023-04-10T01:02:58.290Z,101037.28
2023-04-10T01:06:09.838Z,101037.03
2023-04-10T01:09:26.092Z,101034.03
2023-04-10T01:12:47.531Z,101035.97
2023-04-10T01:15:53.818Z,101055.28
2023-04-10T01:19:25.287Z,101041.97
2023-04-10T01:23:15.936Z,101028.06
2023-04-10T01:26:32.965Z,101057.97
2023-04-10T01:29:38.653Z,101058.78
2023-04-10T01:32:41.876Z,101028.06
2023-04-10T01:35:49.594Z,101048.97
2023-04-10T01:38:54.667Z,101047.28
2023-04-10T01:41:59.979Z,101025.00
2023-04-10T01:45:05.025Z,101027.22
2023-04-10T01:48:07.816Z,101027.47
2023-04-10T01:51:11.710Z,101030.47
2023-04-10T01:54:14.376Z,101050.66
2023-04-10T01:57:17.685Z,101025.62
2023-04-10T02:00:24.285Z,101022.28
2023-04-10T02:03:27.279Z,101050.06
2023-04-10T02:06:56.719Z,101019.09
2023-04-10T02:10:06.902Z,101028.34
2023-04-10T02:13:12.217Z,101038.75
2023-04-10T02:16:19.323Z,101045.28
2023-04-10T02:19:23.707Z,101051.28
2023-04-10T02:22:27.142Z,101042.81
2023-04-10T02:25:33.937Z,101045.03
2023-04-10T02:28:40.252Z,101048.03
2023-04-10T02:31:43.169Z,101046.44
2023-04-10T02:34:46.494Z,101031.53
2023-04-10T02:37:50.764Z,101025.50
2023-04-10T02:40:53.696Z,101043.69
2023-04-10T02:43:56.218Z,101044.28
2023-04-10T02:47:00.603Z,101029.31
2023-04-10T02:50:03.935Z,101010.50
2023-04-10T02:53:07.489Z,100927.94
2023-04-10T02:56:11.837Z,101029.31
2023-04-10T02:59:14.605Z,100998.56
2023-04-10T03:02:17.203Z,101015.69
2023-04-10T03:05:20.407Z,101020.03
2023-04-10T03:08:22.805Z,100991.47
2023-04-10T03:11:25.995Z,101027.44
2023-04-10T03:14:28.447Z,101028.25
2023-04-10T03:17:31.058Z,100998.63
2023-04-10T03:20:33.813Z,101020.97
2023-04-10T03:23:37.116Z,101002.16
2023-04-10T03:26:39.494Z,101029.41
2023-04-10T03:29:42.179Z,101023.69
2023-04-10T03:32:44.723Z,101000.84
2023-04-10T03:35:47.603Z,101007.72
2023-04-10T03:38:50.102Z,101027.00
2023-04-10T03:41:52.750Z,101023.25
2023-04-10T03:44:55.610Z,101025.97
2023-04-10T03:47:59.210Z,101016.53
2023-04-10T03:51:02.517Z,101032.56
2023-04-10T03:54:05.377Z,101032.00
2023-04-10T03:57:07.707Z,101030.88
2023-04-10T04:00:11.412Z,101010.53
2023-04-10T04:03:22.355Z,101013.00
2023-04-10T04:06:27.267Z,101012.44
2023-04-10T04:09:29.763Z,101008.03
2023-04-10T04:12:32.516Z,101033.66
2023-04-10T04:15:35.513Z,101042.62
2023-04-10T04:18:38.855Z,101056.59
2023-04-10T04:21:44.407Z,101020.59
2023-04-10T04:24:47.302Z,101047.84
2023-04-10T04:27:49.806Z,101024.47
2023-04-10T04:30:54.560Z,101060.16
2023-04-10T04:33:57.338Z,101037.88
2023-04-10T04:37:02.151Z,101045.19
2023-04-10T04:40:07.925Z,101033.78
2023-04-10T04:43:11.046Z,101039.56
2023-04-10T04:46:14.091Z,101052.31
2023-04-10T04:49:19.594Z,101045.56
2023-04-10T04:52:23.654Z,101073.31
2023-04-10T04:55:30.485Z,101078.50
2023-04-10T04:58:33.019Z,101083.97
2023-04-10T05:01:37.052Z,101081.78
2023-04-10T05:04:40.790Z,101056.75
2023-04-10T05:07:43.898Z,101088.41
2023-04-10T05:10:47.222Z,101057.37
2023-04-10T05:13:49.906Z,101084.03
2023-04-10T05:16:55.574Z,101090.00
2023-04-10T05:19:58.473Z,101099.28
2023-04-10T05:23:02.342Z,101072.00
2023-04-10T05:26:08.256Z,101073.06
2023-04-10T05:29:11.777Z,101076.78
2023-04-10T05:32:16.492Z,101094.78
2023-04-10T05:35:19.102Z,101067.53
2023-04-10T05:38:21.809Z,101087.00
2023-04-10T05:41:24.249Z,101098.00
2023-04-10T05:44:29.688Z,101078.69
2023-04-10T05:47:32.459Z,101068.56
2023-04-10T05:50:36.471Z,101087.00
2023-04-10T05:53:42.070Z,101088.56
2023-04-10T05:56:47.008Z,101064.00
2023-04-10T05:59:53.872Z,101089.19
2023-04-10T06:02:56.782Z,101098.63
2023-04-10T06:06:02.547Z,101071.13
2023-04-10T06:09:05.225Z,101091.19
2023-04-10T06:12:10.866Z,101088.66
2023-04-10T06:15:13.841Z,101094.00
2023-04-10T06:18:17.356Z,101066.41
2023-04-10T06:21:19.839Z,101065.47
2023-04-10T06:24:22.510Z,101072.44
2023-04-10T06:27:25.050Z,101092.72
2023-04-10T06:30:27.859Z,101069.75
2023-04-10T06:33:30.641Z,101093.25
2023-04-10T06:36:33.764Z,101056.12
2023-04-10T06:39:36.448Z,101073.12
2023-04-10T06:42:39.157Z,101101.31
2023-04-10T06:45:41.751Z,101078.88
2023-04-10T06:48:44.375Z,101078.41
2023-04-10T06:51:48.252Z,101086.91
2023-04-10T06:54:50.879Z,101101.63
2023-04-10T06:57:53.469Z,101088.37
2023-04-10T07:00:56.214Z,101067.53
2023-04-10T07:03:58.668Z,101067.66
2023-04-10T07:07:01.582Z,101058.00
2023-04-10T07:10:04.155Z,101088.13
2023-04-10T07:13:07.020Z,101081.97
2023-04-10T07:16:10.060Z,101098.88
2023-04-10T07:19:13.082Z,101071.34
2023-04-10T07:22:15.908Z,101052.09
2023-04-10T07:25:18.976Z,101081.19
2023-04-10T07:28:21.244Z,101085.41
2023-04-10T07:31:24.064Z,101052.25
2023-04-10T07:34:26.736Z,101054.00
2023-04-10T07:37:29.414Z,101071.41
2023-04-10T07:40:31.754Z,101048.50
2023-04-10T07:43:34.409Z,101047.47
2023-04-10T07:46:36.958Z,101062.62
2023-04-10T07:49:39.575Z,101038.19
2023-04-10T07:52:41.904Z,101062.12
2023-04-10T07:55:48.794Z,101063.03
2023-04-10T07:58:51.942Z,101046.13
2023-04-10T08:01:55.537Z,101061.28
2023-04-10T08:04:58.376Z,101052.09
2023-04-10T08:08:00.831Z,101058.59
2023-04-10T08:11:07.521Z,101048.34
2023-04-10T08:14:09.879Z,101052.94
2023-04-10T08:17:14.905Z,101048.69
2023-04-10T08:20:17.487Z,101044.22
2023-04-10T08:23:20.991Z,101052.88
2023-04-10T08:26:23.966Z,101025.72
2023-04-10T08:29:28.710Z,101053.72
2023-04-10T08:32:31.306Z,101027.22
2023-04-10T08:35:33.983Z,101057.22
2023-04-10T08:38:36.397Z,101049.47
2023-04-10T08:41:41.470Z,101045.75
2023-04-10T08:44:44.049Z,101029.53
2023-04-10T08:47:49.786Z,101014.03
2023-04-10T08:50:52.446Z,101020.44
2023-04-10T08:54:14.320Z,101037.59
2023-04-10T08:57:20.879Z,101020.56
2023-04-10T09:00:23.930Z,101037.94
2023-04-10T09:03:27.948Z,101027.13
2023-04-10T09:06:31.506Z,101026.03
2023-04-10T09:09:34.308Z,101032.12
2023-04-10T09:12:47.603Z,101012.44
2023-04-10T09:15:59.729Z,101031.41
2023-04-10T09:19:04.379Z,101015.66
2023-04-10T09:22:08.355Z,101027.19
2023-04-10T09:25:31.482Z,101021.47
2023-04-10T09:29:02.496Z,101018.34
2023-04-10T09:32:05.606Z,100995.09
2023-04-10T09:35:09.584Z,101019.31
2023-04-10T09:38:19.880Z,101010.37
2023-04-10T09:41:22.158Z,101004.41
2023-04-10T09:44:37.022Z,100984.56
2023-04-10T09:47:39.441Z,100984.34
2023-04-10T09:50:42.306Z,100999.00
2023-04-10T09:53:51.101Z,100998.81
2023-04-10T09:56:54.616Z,100989.59
2023-04-10T10:00:00.366Z,100993.81
2023-04-10T10:03:11.874Z,100988.38
2023-04-10T10:06:15.626Z,100985.78
2023-04-10T10:09:18.172Z,100985.25
2023-04-10T10:12:34.310Z,100959.44
2023-04-10T10:15:50.358Z,100980.94
2023-04-10T10:19:08.056Z,100982.97
2023-04-10T10:22:11.753Z,100982.09
2023-04-10T10:25:14.586Z,100970.19
2023-04-10T10:28:19.001Z,100972.91
2023-04-10T10:31:23.668Z,100967.00
2023-04-10T10:34:26.566Z,100960.53
2023-04-10T10:37:32.384Z,100945.06
2023-04-10T10:40:43.206Z,100941.63
2023-04-10T10:43:54.003Z,100941.63
2023-04-10T10:47:10.126Z,100966.00
2023-04-10T10:50:12.859Z,100965.59
2023-04-10T10:53:37.553Z,100936.56
2023-04-10T10:56:40.156Z,100936.84
2023-04-10T10:59:48.422Z,100941.72
2023-04-10T11:03:09.543Z,100954.28
2023-04-10T11:06:15.481Z,100956.38
2023-04-10T11:09:49.526Z,100954.53
2023-04-10T11:13:18.134Z,100959.75
2023-04-10T11:16:21.628Z,100957.31
2023-04-10T11:19:26.095Z,100927.94
2023-04-10T11:22:29.154Z,100949.13
2023-04-10T11:25:49.428Z,100951.53
2023-04-10T11:28:52.568Z,100930.50
2023-04-10T11:32:01.008Z,100955.94
2023-04-10T11:35:05.101Z,100945.06
2023-04-10T11:38:10.965Z,100943.91
2023-04-10T11:41:13.451Z,100949.91
2023-04-10T11:44:26.961Z,100925.91
2023-04-10T11:47:29.693Z,100943.09
2023-04-10T11:50:36.075Z,100909.00
2023-04-10T11:53:42.549Z,100951.09
2023-04-10T11:56:54.669Z,100919.88
2023-04-10T11:59:57.403Z,100956.84
2023-04-10T12:02:59.930Z,100957.88
2023-04-10T12:06:04.435Z,100947.47
2023-04-10T12:09:14.597Z,100928.41
2023-04-10T12:12:17.363Z,100920.34
2023-04-10T12:15:29.446Z,100940.47
2023-04-10T12:18:32.531Z,100935.25
2023-04-10T12:21:39.584Z,100931.91
2023-04-10T12:24:53.677Z,100929.38
2023-04-10T12:27:56.471Z,100921.25
2023-04-10T12:30:59.350Z,100893.78
2023-04-10T12:34:06.743Z,100910.31
2023-04-10T12:37:10.630Z,100881.56
2023-04-10T12:40:13.705Z,100898.53
2023-04-10T12:43:31.866Z,100886.97
2023-04-10T12:46:34.315Z,100855.00
2023-04-10T12:49:36.966Z,100867.19
2023-04-10T12:52:42.990Z,100874.16
2023-04-10T12:56:06.514Z,100871.44
2023-04-10T12:59:09.020Z,100832.56
2023-04-10T13:02:11.873Z,100854.75
2023-04-10T13:05:15.625Z,100832.34
2023-04-10T13:08:18.239Z,100850.25
2023-04-10T13:11:20.655Z,100858.78
2023-04-10T13:14:23.998Z,100849.41
2023-04-10T13:17:26.379Z,100841.88
2023-04-10T13:20:29.930Z,100816.00
2023-04-10T13:23:32.285Z,100830.81
2023-04-10T13:26:34.967Z,100824.66
2023-04-10T13:29:40.856Z,100795.59
2023-04-10T13:32:44.491Z,100797.66
2023-04-10T13:35:46.871Z,100795.41
2023-04-10T13:38:49.564Z,100789.72
2023-04-10T13:41:51.866Z,100795.41
2023-04-10T13:44:54.514Z,100776.56
2023-04-10T13:47:56.933Z,100791.44
2023-04-10T13:50:59.633Z,100781.00
2023-04-10T13:54:04.766Z,100786.88
2023-04-10T13:57:07.440Z,100781.53
2023-04-10T14:00:10.389Z,100755.94
2023-04-10T14:03:15.065Z,100743.31
2023-04-10T14:06:18.503Z,100757.12
2023-04-10T14:09:21.372Z,100750.62
2023-04-10T14:12:24.114Z,100730.56
2023-04-10T14:15:26.422Z,100741.38
2023-04-10T14:18:29.062Z,100736.19
2023-04-10T14:21:31.784Z,100704.81
2023-04-10T14:24:34.429Z,100711.22
2023-04-10T14:27:36.775Z,100719.28
2023-04-10T14:30:39.401Z,100724.00
2023-04-10T14:33:41.719Z,100707.31
2023-04-10T14:36:44.560Z,100691.97
2023-04-10T14:39:46.843Z,100709.69
2023-04-10T14:42:49.500Z,100697.81
2023-04-10T14:45:51.836Z,100697.81
2023-04-10T14:48:55.130Z,100684.19
2023-04-10T14:51:57.693Z,100674.37
2023-04-10T14:55:00.408Z,100688.16
2023-04-10T14:58:03.980Z,100685.50
2023-04-10T15:01:10.183Z,100684.56
2023-04-10T15:04:12.593Z,100679.62
2023-04-10T15:07:15.359Z,100677.78
2023-04-10T15:10:17.891Z,100648.78
2023-04-10T15:13:21.429Z,100668.50
2023-04-10T15:16:23.809Z,100668.75
2023-04-10T15:19:26.642Z,100665.72
2023-04-10T15:22:29.511Z,100656.59
2023-04-10T15:25:35.395Z,100649.25
2023-04-10T15:28:37.708Z,100623.41
2023-04-10T15:31:41.091Z,100636.28
2023-04-10T15:34:45.031Z,100616.78
2023-04-10T15:37:47.690Z,100644.66
2023-04-10T15:40:49.964Z,100613.13
2023-04-10T15:43:52.960Z,100631.84
2023-04-10T15:46:55.641Z,100636.16
2023-04-10T15:49:58.435Z,100612.81
2023-04-10T15:53:00.737Z,100612.28
2023-04-10T15:56:07.387Z,100607.34
2023-04-10T15:59:09.721Z,100605.28
2023-04-10T16:02:12.419Z,100612.50
2023-04-10T16:05:15.847Z,100617.72
2023-04-10T16:08:18.445Z,100619.06
2023-04-10T16:11:21.140Z,100626.91
2023-04-10T16:14:23.522Z,100613.59
2023-04-10T16:17:26.424Z,100606.50
2023-04-10T16:20:28.905Z,100613.59
2023-04-10T16:23:31.629Z,100604.47
2023-04-10T16:26:34.056Z,100606.06
2023-04-10T16:29:36.774Z,100601.34
2023-04-10T16:32:39.233Z,100577.53
2023-04-10T16:35:41.925Z,100575.03
2023-04-10T16:38:45.227Z,100596.25
2023-04-10T16:41:47.854Z,100588.09
2023-04-10T16:44:50.227Z,100589.94
2023-04-10T16:47:53.051Z,100571.22
2023-04-10T16:50:55.664Z,100569.53
2023-04-10T16:53:58.320Z,100595.91
2023-04-10T16:57:01.452Z,100597.78
2023-04-10T17:00:04.480Z,100565.09
2023-04-10T17:03:07.382Z,100568.59
2023-04-10T17:06:10.270Z,100583.53
2023-04-10T17:09:12.635Z,100583.44
2023-04-10T17:12:15.832Z,100587.66
2023-04-10T17:15:18.312Z,100584.78
2023-04-10T17:18:23.665Z,100586.19
2023-04-10T17:21:27.272Z,100587.84
2023-04-10T17:24:31.531Z,100588.91
2023-04-10T17:27:34.136Z,100583.38
2023-04-10T17:30:38.172Z,100591.12
2023-04-10T17:33:44.000Z,100585.84
2023-04-10T17:36:47.644Z,100595.28
2023-04-10T17:39:52.261Z,100599.13
2023-04-10T17:42:54.967Z,100599.28
2023-04-10T17:46:00.196Z,100606.41
2023-04-10T17:49:03.266Z,100605.50
2023-04-10T17:52:05.948Z,100611.28
2023-04-10T17:55:11.568Z,100613.13
2023-04-10T17:58:14.801Z,100616.97
2023-04-10T18:01:22.234Z,100627.22
2023-04-10T18:04:25.144Z,100615.19
2023-04-10T18:07:27.669Z,100617.06
2023-04-10T18:10:31.030Z,100620.06
2023-04-10T18:13:37.561Z,100618.00
2023-04-10T18:16:47.886Z,100620.31
2023-04-10T18:19:51.704Z,100621.69
2023-04-10T18:22:54.460Z,100620.75
2023-04-10T18:25:57.105Z,100619.84
2023-04-10T18:29:01.411Z,100622.84
2023-04-10T18:32:04.197Z,100617.88
2023-04-10T18:35:07.374Z,100617.75
2023-04-10T18:38:13.618Z,100627.22
2023-04-10T18:41:16.458Z,100620.63
2023-04-10T18:44:21.261Z,100622.12
2023-04-10T18:47:25.434Z,100618.91
2023-04-10T18:50:27.847Z,100622.03
2023-04-10T18:53:30.655Z,100636.66
2023-04-10T18:56:35.477Z,100650.37
2023-04-10T18:59:40.619Z,100650.25
2023-04-10T19:02:43.797Z,100641.72
2023-04-10T19:05:46.561Z,100647.34
2023-04-10T19:08:49.158Z,100621.62
2023-04-10T19:11:51.826Z,100631.25
2023-04-10T19:14:54.869Z,100663.06
2023-04-10T19:17:59.906Z,100663.25
2023-04-10T19:21:02.855Z,100650.81
2023-04-10T19:24:05.674Z,100650.00
2023-04-10T19:27:07.961Z,100651.19
2023-04-10T19:30:11.636Z,100650.00
2023-04-10T19:33:15.053Z,100656.91
2023-04-10T19:36:18.655Z,100650.41
2023-04-10T19:39:21.486Z,100651.75
2023-04-10T19:42:24.355Z,100643.84
2023-04-10T19:45:29.090Z,100615.06
2023-04-10T19:48:31.872Z,100644.56
2023-04-10T19:51:34.206Z,100615.94
2023-04-10T19:54:36.811Z,100633.44
2023-04-10T19:57:40.367Z,100630.22
2023-04-10T20:00:43.087Z,100590.84
2023-04-10T20:03:45.994Z,100612.69
2023-04-10T20:06:49.230Z,100618.06
2023-04-10T20:09:51.922Z,100625.84
2023-04-10T20:12:54.278Z,100609.06
2023-04-10T20:15:56.911Z,100624.41
2023-04-10T20:18:59.598Z,100602.78
2023-04-10T20:22:04.668Z,100610.41
2023-04-10T20:25:07.665Z,100629.50
2023-04-10T20:28:10.310Z,100604.13
2023-04-10T20:31:12.591Z,100613.34
2023-04-10T20:34:15.510Z,100617.66
2023-04-10T20:37:21.834Z,100620.09
2023-04-10T20:40:24.502Z,100581.59
2023-04-10T20:43:26.835Z,100603.56
2023-04-10T20:46:30.001Z,100611.34
2023-04-10T20:49:32.929Z,100594.00
2023-04-10T20:52:35.740Z,100600.19
2023-04-10T20:55:38.987Z,100599.37
2023-04-10T20:58:41.631Z,100584.53
2023-04-10T21:01:44.146Z,100602.31
2023-04-10T21:04:46.936Z,100606.69
2023-04-10T21:07:49.338Z,100590.88
2023-04-10T21:10:52.230Z,100571.63
2023-04-10T21:13:54.781Z,100578.91
2023-04-10T21:16:57.623Z,100584.78
2023-04-10T21:20:02.840Z,100601.28
2023-04-10T21:23:05.612Z,100600.00
2023-04-10T21:26:08.165Z,100596.94
2023-04-10T21:29:10.789Z,100596.13
2023-04-10T21:32:13.333Z,100580.41
2023-04-10T21:35:17.617Z,100574.62
2023-04-10T21:38:20.007Z,100563.97
2023-04-10T21:41:22.700Z,100588.41
2023-04-10T21:44:25.031Z,100594.91
2023-04-10T21:47:27.827Z,100589.72
2023-04-10T21:50:30.279Z,100586.50
2023-04-10T21:53:33.087Z,100581.94
2023-04-10T21:56:36.812Z,100569.97
2023-04-10T21:59:39.605Z,100576.97
2023-04-10T22:02:42.254Z,100564.16
2023-04-10T22:05:45.924Z,100574.41
2023-04-10T22:08:48.293Z,100546.09
2023-04-10T22:11:51.121Z,100561.47
2023-04-10T22:14:53.541Z,100555.44
2023-04-10T22:17:56.237Z,100554.97
2023-04-10T22:20:59.700Z,100550.78
2023-04-10T22:24:02.903Z,100556.94
2023-04-10T22:27:05.318Z,100556.47
2023-04-10T22:30:09.841Z,100530.16
2023-04-10T22:33:12.710Z,100526.59
2023-04-10T22:36:15.360Z,100558.94
2023-04-10T22:39:18.023Z,100523.66
2023-04-10T22:42:20.651Z,100526.22
2023-04-10T22:45:22.956Z,100550.69
2023-04-10T22:48:25.696Z,100539.84
2023-04-10T22:51:28.196Z,100522.06
2023-04-10T22:54:30.917Z,100536.13
2023-04-10T22:57:33.737Z,100545.50
2023-04-10T23:00:36.442Z,100534.84
2023-04-10T23:03:38.782Z,100515.28
2023-04-10T23:06:41.447Z,100521.91
2023-04-10T23:09:43.740Z,100519.16
2023-04-10T23:12:46.737Z,100526.13
2023-04-10T23:15:53.822Z,100530.47
2023-04-10T23:18:56.658Z,100503.16
2023-04-10T23:21:59.360Z,100538.09
2023-04-10T23:25:02.054Z,100529.69
2023-04-10T23:28:04.901Z,100525.97
2023-04-10T23:31:09.050Z,100526.44
2023-04-10T23:34:11.337Z,100521.28
2023-04-10T23:37:13.918Z,100514.00
2023-04-10T23:40:17.118Z,100518.53
2023-04-10T23:43:19.815Z,100524.69
2023-04-10T23:46:22.552Z,100485.25
2023-04-10T23:49:25.349Z,100485.06
2023-04-10T23:52:28.671Z,100514.19
2023-04-10T23:55:31.272Z,100520.66
2023-04-10T23:58:33.597Z,100513.06
